createdAt,value
2022-11-06T00:01:22.578Z,101258.78
2022-11-06T00:03:53.701Z,101267.47
2022-11-06T00:06:40.284Z,101254.19
2022-11-06T00:09:13.047Z,101257.16
2022-11-06T00:11:43.160Z,101259.75
2022-11-06T00:14:12.680Z,101256.19
2022-11-06T00:16:42.836Z,101256.41
2022-11-06T00:19:12.065Z,101260.38
2022-11-06T00:21:41.523Z,101258.47
2022-11-06T00:24:14.711Z,101248.66
2022-11-06T00:26:44.196Z,101255.03
2022-11-06T00:29:15.623Z,101251.25
2022-11-06T00:31:44.571Z,101242.78
2022-11-06T00:34:13.496Z,101241.72
2022-11-06T00:36:42.472Z,101248.97
2022-11-06T00:39:13.261Z,101241.88
2022-11-06T00:41:42.217Z,101242.47
2022-11-06T00:44:11.409Z,101235.78
2022-11-06T00:46:40.335Z,101235.28
2022-11-06T00:49:09.487Z,101241.34
2022-11-06T00:51:40.220Z,101236.09
2022-11-06T00:54:12.350Z,101236.53
2022-11-06T00:56:41.904Z,101227.03
2022-11-06T00:59:14.345Z,101221.06
2022-11-06T01:01:45.148Z,101224.50
2022-11-06T01:04:16.376Z,101232.47
2022-11-06T01:06:46.763Z,101225.03
2022-11-06T01:09:19.012Z,101226.09
2022-11-06T01:14:41.286Z,101226.19
2022-11-06T01:17:10.404Z,101223.47
2022-11-06T01:19:39.550Z,101214.19
2022-11-06T01:22:08.568Z,101217.91
2022-11-06T01:24:39.071Z,101221.97
2022-11-06T01:29:57.295Z,101209.94
2022-11-06T01:32:26.266Z,101202.22
2022-11-06T01:34:55.342Z,101198.66
2022-11-06T01:37:24.321Z,101205.47
2022-11-06T01:39:54.567Z,101208.72
2022-11-06T01:42:23.516Z,101195.56
2022-11-06T01:45:34.278Z,101192.00
2022-11-06T01:48:04.210Z,101189.81
2022-11-06T01:50:33.742Z,101180.16
2022-11-06T01:53:03.335Z,101180.28
2022-11-06T01:55:36.988Z,101170.88
2022-11-06T01:58:08.886Z,101169.22
2022-11-06T02:00:38.875Z,101170.25
2022-11-06T02:03:08.679Z,101165.34
2022-11-06T02:05:37.681Z,101172.53
2022-11-06T02:08:07.856Z,101170.88
2022-11-06T02:10:39.689Z,101167.63
2022-11-06T02:13:24.550Z,101170.97
2022-11-06T02:15:59.403Z,101170.88
2022-11-06T02:18:44.311Z,101159.44
2022-11-06T02:21:37.966Z,101150.91
2022-11-06T02:24:34.746Z,101157.91
2022-11-06T02:27:11.854Z,101152.44
2022-11-06T02:29:51.157Z,101161.03
2022-11-06T02:32:27.178Z,101152.34
2022-11-06T02:34:59.772Z,101153.94
2022-11-06T02:37:33.377Z,101140.13
2022-11-06T02:40:05.865Z,101136.78
2022-11-06T02:42:38.913Z,101137.50
2022-11-06T02:45:10.910Z,101134.16
2022-11-06T02:47:42.473Z,101127.81
2022-11-06T02:50:14.605Z,101127.06
2022-11-06T02:52:47.977Z,101117.63
2022-11-06T02:55:23.852Z,101119.22
2022-11-06T02:57:58.188Z,101121.41
2022-11-06T03:00:28.978Z,101118.72
2022-11-06T03:03:02.319Z,101111.09
2022-11-06T03:05:35.648Z,101117.16
2022-11-06T03:08:10.288Z,101118.59
2022-11-06T03:10:46.039Z,101109.63
2022-11-06T03:13:22.732Z,101105.25
2022-11-06T03:16:01.095Z,101103.63
2022-11-06T03:18:35.805Z,101095.69
2022-11-06T03:21:09.047Z,101084.63
2022-11-06T03:23:44.667Z,101083.28
2022-11-06T03:26:17.628Z,101090.28
2022-11-06T03:28:55.297Z,101092.78
2022-11-06T03:31:31.076Z,101091.03
2022-11-06T03:34:04.869Z,101093.50
2022-11-06T03:36:37.389Z,101087.56
2022-11-06T03:39:10.984Z,101092.66
2022-11-06T03:41:45.118Z,101091.03
2022-11-06T03:44:19.219Z,101088.88
2022-11-06T03:46:51.700Z,101078.66
2022-11-06T03:49:27.951Z,101083.06
2022-11-06T03:52:02.937Z,101081.66
2022-11-06T03:54:36.905Z,101083.63
2022-11-06T03:57:11.015Z,101081.25
2022-11-06T03:59:45.814Z,101074.72
2022-11-06T04:02:17.087Z,101066.16
2022-11-06T04:04:51.277Z,101065.22
2022-11-06T04:07:23.412Z,101076.28
2022-11-06T04:10:14.516Z,101064.06
2022-11-06T04:13:02.918Z,101069.88
2022-11-06T04:15:37.760Z,101076.66
2022-11-06T04:18:15.333Z,101063.16
2022-11-06T04:21:10.294Z,101075.25
2022-11-06T04:24:11.332Z,101069.00
2022-11-06T04:26:45.129Z,101075.16
2022-11-06T04:29:22.726Z,101074.22
2022-11-06T04:32:04.182Z,101075.88
2022-11-06T04:34:45.304Z,101075.88
2022-11-06T04:37:22.212Z,101071.63
2022-11-06T04:39:57.593Z,101080.50
2022-11-06T04:42:33.110Z,101069.31
2022-11-06T04:45:07.503Z,101072.78
2022-11-06T04:47:39.779Z,101069.66
2022-11-06T04:50:12.518Z,101066.09
2022-11-06T04:52:43.551Z,101068.50
2022-11-06T04:55:12.559Z,101073.81
2022-11-06T04:57:41.483Z,101072.88
2022-11-06T05:00:15.026Z,101070.25
2022-11-06T05:02:45.452Z,101060.97
2022-11-06T05:05:14.432Z,101064.34
2022-11-06T05:07:43.382Z,101070.16
2022-11-06T05:10:12.278Z,101063.25
2022-11-06T05:12:41.225Z,101071.94
2022-11-06T05:15:10.620Z,101063.38
2022-11-06T05:17:39.573Z,101061.03
2022-11-06T05:20:10.444Z,101061.47
2022-11-06T05:23:00.673Z,101059.72
2022-11-06T05:25:31.644Z,101056.25
2022-11-06T05:28:01.302Z,101056.63
2022-11-06T05:30:30.498Z,101063.16
2022-11-06T05:32:59.479Z,101062.31
2022-11-06T05:35:29.738Z,101049.13
2022-11-06T05:38:02.499Z,101055.19
2022-11-06T05:40:31.747Z,101051.72
2022-11-06T05:43:00.666Z,101059.25
2022-11-06T05:45:29.689Z,101058.22
2022-11-06T05:47:58.662Z,101051.06
2022-11-06T05:50:28.978Z,101055.47
2022-11-06T05:52:57.898Z,101055.69
2022-11-06T05:55:26.839Z,101067.81
2022-11-06T05:57:55.773Z,101063.44
2022-11-06T06:00:24.765Z,101055.47
2022-11-06T06:02:53.725Z,101057.13
2022-11-06T06:05:22.753Z,101055.59
2022-11-06T06:07:53.020Z,101062.94
2022-11-06T06:10:22.006Z,101059.88
2022-11-06T06:12:51.235Z,101066.88
2022-11-06T06:15:20.231Z,101065.88
2022-11-06T06:17:49.264Z,101053.03
2022-11-06T06:20:18.433Z,101066.66
2022-11-06T06:22:55.895Z,101074.19
2022-11-06T06:25:25.580Z,101066.78
2022-11-06T06:27:55.041Z,101065.22
2022-11-06T06:30:25.260Z,101071.84
2022-11-06T06:32:54.487Z,101084.06
2022-11-06T06:35:23.390Z,101081.06
2022-11-06T06:37:55.083Z,101073.75
2022-11-06T06:40:24.329Z,101075.31
2022-11-06T06:42:56.341Z,101077.59
2022-11-06T06:45:25.462Z,101063.38
2022-11-06T06:47:54.416Z,101063.06
2022-11-06T06:50:23.456Z,101067.22
2022-11-06T06:52:58.709Z,101061.78
2022-11-06T06:55:27.726Z,101065.13
2022-11-06T06:58:00.245Z,101058.53
2022-11-06T07:00:30.198Z,101060.81
2022-11-06T07:02:59.296Z,101060.59
2022-11-06T07:05:28.316Z,101060.69
2022-11-06T07:07:58.887Z,101056.31
2022-11-06T07:10:27.800Z,101065.28
2022-11-06T07:12:56.794Z,101062.75
2022-11-06T07:15:25.824Z,101061.81
2022-11-06T07:17:54.945Z,101064.88
2022-11-06T07:20:23.903Z,101071.09
2022-11-06T07:22:52.804Z,101067.22
2022-11-06T07:25:23.054Z,101069.88
2022-11-06T07:27:52.064Z,101073.94
2022-11-06T07:30:20.976Z,101070.94
2022-11-06T07:32:49.890Z,101071.47
2022-11-06T07:35:19.176Z,101075.78
2022-11-06T07:37:48.681Z,101076.53
2022-11-06T07:40:18.059Z,101075.44
2022-11-06T07:42:48.515Z,101081.28
2022-11-06T07:45:18.838Z,101081.78
2022-11-06T07:47:47.840Z,101074.31
2022-11-06T07:50:16.933Z,101067.31
2022-11-06T07:52:45.970Z,101081.09
2022-11-06T07:55:15.187Z,101061.41
2022-11-06T07:57:44.189Z,101071.53
2022-11-06T08:00:15.847Z,101073.81
2022-11-06T08:02:45.629Z,101072.44
2022-11-06T08:05:14.580Z,101079.44
2022-11-06T08:07:43.491Z,101075.75
2022-11-06T08:10:12.415Z,101073.50
2022-11-06T08:12:41.390Z,101075.50
2022-11-06T08:15:11.092Z,101077.53
2022-11-06T08:17:41.347Z,101075.47
2022-11-06T08:20:11.561Z,101064.03
2022-11-06T08:22:40.555Z,101074.59
2022-11-06T08:25:10.611Z,101069.47
2022-11-06T08:27:39.509Z,101065.06
2022-11-06T08:30:09.771Z,101064.03
2022-11-06T08:32:39.998Z,101061.81
2022-11-06T08:35:09.954Z,101064.94
2022-11-06T08:37:38.860Z,101063.44
2022-11-06T08:40:09.069Z,101066.50
2022-11-06T08:42:37.988Z,101061.53
2022-11-06T08:45:08.328Z,101051.91
2022-11-06T08:47:37.318Z,101051.09
2022-11-06T08:50:08.688Z,101055.13
2022-11-06T08:52:37.803Z,101050.84
2022-11-06T08:55:07.341Z,101049.88
2022-11-06T08:57:36.266Z,101041.94
2022-11-06T09:00:06.420Z,101044.94
2022-11-06T09:02:35.488Z,101040.03
2022-11-06T09:05:04.604Z,101035.75
2022-11-06T09:07:35.099Z,101021.09
2022-11-06T09:10:04.638Z,101020.03
2022-11-06T09:12:33.746Z,101011.81
2022-11-06T09:15:02.775Z,101021.44
2022-11-06T09:17:31.810Z,101024.28
2022-11-06T09:20:00.792Z,101029.53
2022-11-06T09:22:29.899Z,101016.28
2022-11-06T09:25:04.516Z,101020.13
2022-11-06T09:27:34.357Z,101023.44
2022-11-06T09:30:03.346Z,101027.22
2022-11-06T09:32:33.186Z,101035.09
2022-11-06T09:35:03.188Z,101033.31
2022-11-06T09:37:33.044Z,101032.25
2022-11-06T09:40:06.681Z,101038.56
2022-11-06T09:42:46.451Z,101033.25
2022-11-06T09:45:22.966Z,101038.09
2022-11-06T09:47:58.531Z,101036.41
2022-11-06T09:50:32.610Z,101037.63
2022-11-06T09:53:07.953Z,101043.81
2022-11-06T09:55:42.085Z,101037.25
2022-11-06T09:58:16.937Z,101030.66
2022-11-06T10:00:46.729Z,101036.69
2022-11-06T10:03:20.795Z,101037.06
2022-11-06T10:05:53.568Z,101031.38
2022-11-06T10:08:25.673Z,101016.25
2022-11-06T10:11:04.945Z,101016.53
2022-11-06T10:13:54.785Z,101011.84
2022-11-06T10:16:34.956Z,101016.41
2022-11-06T10:19:12.819Z,101014.22
2022-11-06T10:21:50.220Z,101009.69
2022-11-06T10:24:25.582Z,101022.28
2022-11-06T10:26:58.700Z,101006.09
2022-11-06T10:29:47.012Z,101007.63
2022-11-06T10:32:35.774Z,101007.00
2022-11-06T10:35:14.290Z,101007.31
2022-11-06T10:37:51.045Z,101004.34
2022-11-06T10:40:24.144Z,101001.53
2022-11-06T10:43:05.443Z,101005.50
2022-11-06T10:45:37.655Z,100996.22
2022-11-06T10:48:19.436Z,101000.59
2022-11-06T10:50:57.842Z,100990.72
2022-11-06T10:53:37.464Z,100988.91
2022-11-06T10:56:29.576Z,100992.28
2022-11-06T10:59:00.383Z,100981.84
2022-11-06T11:01:30.580Z,100981.19
2022-11-06T11:04:00.051Z,100977.22
2022-11-06T11:06:29.978Z,100975.63
2022-11-06T11:09:02.205Z,100964.53
2022-11-06T11:11:32.262Z,100964.59
2022-11-06T11:14:24.269Z,100953.75
2022-11-06T11:16:54.857Z,100954.19
2022-11-06T11:19:27.439Z,100937.69
2022-11-06T11:21:59.089Z,100933.69
2022-11-06T11:24:29.300Z,100925.94
2022-11-06T11:27:02.634Z,100922.47
2022-11-06T11:29:35.424Z,100939.16
2022-11-06T11:32:07.855Z,100936.66
2022-11-06T11:34:50.180Z,100934.78
2022-11-06T11:37:26.838Z,100924.56
2022-11-06T11:39:56.321Z,100923.34
2022-11-06T11:42:28.459Z,100908.41
2022-11-06T11:45:22.205Z,100914.19
2022-11-06T11:47:52.387Z,100910.78
2022-11-06T11:50:30.826Z,100899.50
2022-11-06T11:53:10.507Z,100904.13
2022-11-06T11:55:43.525Z,100898.53
2022-11-06T11:58:22.753Z,100898.06
2022-11-06T12:00:56.828Z,100907.84
2022-11-06T12:03:29.491Z,100904.59
2022-11-06T12:06:09.577Z,100905.28
2022-11-06T12:08:41.019Z,100899.72
2022-11-06T12:11:13.847Z,100899.56
2022-11-06T12:13:42.865Z,100900.56
2022-11-06T12:16:17.817Z,100890.97
2022-11-06T12:18:52.341Z,100898.38
2022-11-06T12:21:28.924Z,100887.28
2022-11-06T12:24:02.807Z,100885.88
2022-11-06T12:26:36.262Z,100881.47
2022-11-06T12:29:11.066Z,100880.72
2022-11-06T12:31:45.932Z,100876.72
2022-11-06T12:34:20.662Z,100872.94
2022-11-06T12:37:03.691Z,100876.09
2022-11-06T12:39:38.145Z,100866.03
2022-11-06T12:42:11.164Z,100854.78
2022-11-06T12:44:40.325Z,100864.59
2022-11-06T12:47:26.581Z,100860.75
2022-11-06T12:50:29.043Z,100853.56
2022-11-06T12:53:16.414Z,100859.28
2022-11-06T12:55:52.209Z,100859.72
2022-11-06T12:58:50.985Z,100846.66
2022-11-06T13:01:32.857Z,100837.91
2022-11-06T13:04:17.860Z,100831.53
2022-11-06T13:07:24.098Z,100827.38
2022-11-06T13:10:04.429Z,100831.69
2022-11-06T13:12:43.526Z,100833.19
2022-11-06T13:15:27.997Z,100828.06
2022-11-06T13:18:02.689Z,100823.50
2022-11-06T13:20:40.968Z,100810.88
2022-11-06T13:23:17.696Z,100804.03
2022-11-06T13:25:54.385Z,100800.56
2022-11-06T13:28:39.042Z,100806.00
2022-11-06T13:31:12.065Z,100808.78
2022-11-06T13:33:47.982Z,100798.25
2022-11-06T13:36:19.720Z,100795.00
2022-11-06T13:38:55.054Z,100785.22
2022-11-06T13:41:28.396Z,100778.97
2022-11-06T13:44:02.570Z,100783.59
2022-11-06T13:46:39.623Z,100775.84
2022-11-06T13:49:21.517Z,100774.53
2022-11-06T13:51:55.931Z,100755.75
2022-11-06T13:54:39.285Z,100759.38
2022-11-06T13:57:34.271Z,100761.25
2022-11-06T14:00:22.266Z,100760.97
2022-11-06T14:03:14.688Z,100754.53
2022-11-06T14:05:59.762Z,100765.41
2022-11-06T14:08:34.416Z,100752.59
2022-11-06T14:11:07.392Z,100752.06
2022-11-06T14:13:37.310Z,100751.53
2022-11-06T14:16:25.216Z,100749.34
2022-11-06T14:19:01.240Z,100747.13
2022-11-06T14:21:52.067Z,100755.06
2022-11-06T14:24:41.408Z,100751.47
2022-11-06T14:27:34.505Z,100750.66
2022-11-06T14:30:09.046Z,100758.25
2022-11-06T14:32:43.854Z,100755.88
2022-11-06T14:35:49.499Z,100741.34
2022-11-06T14:38:36.761Z,100733.59
2022-11-06T14:41:51.385Z,100719.13
2022-11-06T14:44:50.752Z,100721.59
2022-11-06T14:47:35.577Z,100727.41
2022-11-06T14:50:09.361Z,100726.16
2022-11-06T14:52:46.049Z,100715.38
2022-11-06T14:55:29.541Z,100718.28
2022-11-06T14:58:12.466Z,100726.69
2022-11-06T15:00:50.564Z,100722.69
2022-11-06T15:03:29.197Z,100727.38
2022-11-06T15:06:02.876Z,100732.34
2022-11-06T15:09:08.820Z,100712.16
2022-11-06T15:12:01.056Z,100714.78
2022-11-06T15:14:56.375Z,100718.66
2022-11-06T15:17:33.690Z,100708.03
2022-11-06T15:20:24.462Z,100709.28
2022-11-06T15:23:18.397Z,100711.47
2022-11-06T15:26:05.329Z,100704.84
2022-11-06T15:28:42.472Z,100704.97
2022-11-06T15:31:17.631Z,100704.84
2022-11-06T15:33:59.057Z,100702.50
2022-11-06T15:36:33.531Z,100696.81
2022-11-06T15:39:21.738Z,100697.38
2022-11-06T15:41:52.450Z,100697.09
2022-11-06T15:44:22.697Z,100708.25
2022-11-06T15:46:55.849Z,100705.50
2022-11-06T15:49:25.476Z,100702.59
2022-11-06T15:51:58.042Z,100698.69
2022-11-06T15:54:36.317Z,100699.25
2022-11-06T15:57:14.527Z,100715.25
2022-11-06T15:59:43.733Z,100709.19
2022-11-06T16:02:19.433Z,100700.09
2022-11-06T16:04:50.119Z,100714.25
2022-11-06T16:07:21.595Z,100706.56
2022-11-06T16:09:52.101Z,100710.41
2022-11-06T16:12:22.862Z,100717.88
2022-11-06T16:14:51.836Z,100711.06
2022-11-06T16:17:26.996Z,100712.06
2022-11-06T16:20:00.237Z,100713.44
2022-11-06T16:22:34.384Z,100710.13
2022-11-06T16:25:05.829Z,100700.59
2022-11-06T16:27:37.387Z,100704.16
2022-11-06T16:30:07.931Z,100700.69
2022-11-06T16:32:41.853Z,100700.41
2022-11-06T16:35:33.040Z,100709.78
2022-11-06T16:38:48.124Z,100706.47
2022-11-06T16:41:33.720Z,100703.44
2022-11-06T16:44:29.305Z,100698.19
2022-11-06T16:47:17.693Z,100693.75
2022-11-06T16:49:53.558Z,100688.91
2022-11-06T16:52:29.363Z,100690.25
2022-11-06T16:55:02.829Z,100692.63
2022-11-06T16:57:36.485Z,100689.41
2022-11-06T17:00:08.744Z,100687.06
2022-11-06T17:02:39.193Z,100688.44
2022-11-06T17:05:11.681Z,100691.16
2022-11-06T17:07:41.293Z,100685.59
2022-11-06T17:10:41.409Z,100681.88
2022-11-06T17:13:17.727Z,100679.38
2022-11-06T17:15:49.086Z,100682.22
2022-11-06T17:18:21.456Z,100678.88
2022-11-06T17:20:54.802Z,100670.28
2022-11-06T17:23:25.227Z,100671.41
2022-11-06T17:26:00.305Z,100662.91
2022-11-06T17:28:31.424Z,100660.22
2022-11-06T17:31:00.384Z,100659.25
2022-11-06T17:33:29.353Z,100651.34
2022-11-06T17:35:58.681Z,100646.81
2022-11-06T17:38:27.619Z,100650.00
2022-11-06T17:40:56.757Z,100641.16
2022-11-06T17:43:25.757Z,100641.56
2022-11-06T17:45:56.654Z,100626.78
2022-11-06T17:48:25.936Z,100616.31
2022-11-06T17:51:21.732Z,100621.97
2022-11-06T17:53:50.741Z,100627.06
2022-11-06T17:56:19.734Z,100623.22
2022-11-06T17:58:49.306Z,100616.47
2022-11-06T18:01:20.089Z,100608.44
2022-11-06T18:03:49.377Z,100605.81
2022-11-06T18:06:18.648Z,100612.28
2022-11-06T18:08:47.747Z,100604.47
2022-11-06T18:11:16.971Z,100605.81
2022-11-06T18:13:46.156Z,100606.94
2022-11-06T18:16:17.926Z,100594.66
2022-11-06T18:18:48.999Z,100593.72
2022-11-06T18:21:18.075Z,100585.69
2022-11-06T18:23:47.806Z,100584.47
2022-11-06T18:26:17.239Z,100585.13
2022-11-06T18:28:46.759Z,100588.63
2022-11-06T18:31:16.008Z,100575.66
2022-11-06T18:33:45.427Z,100569.97
2022-11-06T18:36:16.638Z,100563.09
2022-11-06T18:38:45.920Z,100564.63
2022-11-06T18:41:16.692Z,100557.97
2022-11-06T18:43:45.871Z,100556.72
2022-11-06T18:46:17.185Z,100550.00
2022-11-06T18:48:46.317Z,100550.25
2022-11-06T18:51:33.433Z,100553.00
2022-11-06T18:54:05.544Z,100556.47
2022-11-06T18:56:36.247Z,100549.00
2022-11-06T18:59:06.502Z,100550.25
2022-11-06T19:01:36.283Z,100542.25
2022-11-06T19:04:10.631Z,100538.25
2022-11-06T19:06:41.724Z,100524.97
2022-11-06T19:09:11.691Z,100530.94
2022-11-06T19:11:40.643Z,100536.81
2022-11-06T19:14:09.647Z,100524.97
2022-11-06T19:16:38.744Z,100532.16
2022-11-06T19:19:08.221Z,100529.78
2022-11-06T19:21:37.475Z,100525.38
2022-11-06T19:24:08.270Z,100509.94
2022-11-06T19:26:37.509Z,100515.28
2022-11-06T19:29:08.510Z,100519.47
2022-11-06T19:31:38.427Z,100513.50
2022-11-06T19:34:09.465Z,100510.31
2022-11-06T19:36:38.631Z,100508.41
2022-11-06T19:39:09.425Z,100503.41
2022-11-06T19:41:38.721Z,100506.31
2022-11-06T19:44:09.946Z,100504.66
2022-11-06T19:46:39.501Z,100510.72
2022-11-06T19:49:09.931Z,100498.19
2022-11-06T19:51:40.980Z,100500.00
2022-11-06T19:54:11.972Z,100493.25
2022-11-06T19:57:26.880Z,100488.69
2022-11-06T19:59:30.668Z,100490.31
2022-11-06T20:01:59.862Z,100500.56
2022-11-06T20:04:29.101Z,100492.44
2022-11-06T20:06:58.317Z,100492.44
2022-11-06T20:09:28.646Z,100498.50
2022-11-06T20:11:58.128Z,100499.47
2022-11-06T20:14:32.586Z,100491.63
2022-11-06T20:17:01.982Z,100493.00
2022-11-06T20:19:31.638Z,100490.50
2022-11-06T20:22:02.353Z,100480.72
2022-11-06T20:24:32.976Z,100477.28
2022-11-06T20:27:05.130Z,100474.78
2022-11-06T20:29:37.768Z,100480.28
2022-11-06T20:32:07.281Z,100471.75
2022-11-06T20:34:36.660Z,100472.72
2022-11-06T20:37:05.708Z,100469.53
2022-11-06T20:39:36.153Z,100476.16
2022-11-06T20:42:05.225Z,100481.41
2022-11-06T20:44:34.356Z,100481.94
2022-11-06T20:47:03.390Z,100482.50
2022-11-06T20:49:32.403Z,100475.75
2022-11-06T20:52:15.840Z,100474.94
2022-11-06T20:54:47.699Z,100470.94
2022-11-06T20:57:17.203Z,100484.56
2022-11-06T20:59:46.310Z,100482.34
2022-11-06T21:02:15.725Z,100475.56
2022-11-06T21:04:44.984Z,100479.22
2022-11-06T21:07:14.068Z,100489.91
2022-11-06T21:09:43.041Z,100486.44
2022-11-06T21:12:13.376Z,100496.53
2022-11-06T21:14:42.348Z,100495.78
2022-11-06T21:17:11.307Z,100488.31
2022-11-06T21:19:40.305Z,100501.00
2022-11-06T21:22:09.284Z,100487.28
2022-11-06T21:24:38.378Z,100498.38
2022-11-06T21:27:07.338Z,100487.09
2022-11-06T21:29:37.692Z,100476.91
2022-11-06T21:32:06.881Z,100471.03
2022-11-06T21:34:35.901Z,100463.56
2022-11-06T21:37:04.892Z,100461.81
2022-11-06T21:39:36.507Z,100457.69
2022-11-06T21:42:06.580Z,100446.41
2022-11-06T21:44:37.118Z,100443.31
2022-11-06T21:47:06.455Z,100444.66
2022-11-06T21:49:35.405Z,100438.97
2022-11-06T21:52:18.311Z,100433.03
2022-11-06T21:55:04.850Z,100422.59
2022-11-06T21:57:33.833Z,100423.09
2022-11-06T22:00:04.562Z,100422.00
2022-11-06T22:02:40.965Z,100426.63
2022-11-06T22:05:10.704Z,100429.13
2022-11-06T22:07:39.686Z,100424.88
2022-11-06T22:10:09.666Z,100422.94
2022-11-06T22:12:38.636Z,100422.94
2022-11-06T22:15:10.278Z,100420.13
2022-11-06T22:17:39.223Z,100429.59
2022-11-06T22:20:09.300Z,100428.53
2022-11-06T22:22:38.308Z,100429.09
2022-11-06T22:25:07.902Z,100425.56
2022-11-06T22:27:40.889Z,100408.28
2022-11-06T22:30:13.385Z,100414.84
2022-11-06T22:32:42.319Z,100420.78
2022-11-06T22:35:11.794Z,100419.34
2022-11-06T22:37:40.945Z,100423.16
2022-11-06T22:40:11.539Z,100405.88
2022-11-06T22:42:40.509Z,100400.91
2022-11-06T22:45:11.719Z,100405.78
2022-11-06T22:47:40.744Z,100402.78
2022-11-06T22:50:10.306Z,100398.88
2022-11-06T22:52:39.267Z,100405.50
2022-11-06T22:55:08.815Z,100394.50
2022-11-06T22:57:37.831Z,100400.56
2022-11-06T23:00:08.541Z,100388.22
2022-11-06T23:02:38.958Z,100380.38
2022-11-06T23:05:08.803Z,100378.44
2022-11-06T23:07:38.109Z,100374.63
2022-11-06T23:10:08.709Z,100382.94
2022-11-06T23:12:37.735Z,100385.16
2022-11-06T23:15:08.165Z,100377.31
2022-11-06T23:17:38.712Z,100376.47
2022-11-06T23:20:08.651Z,100378.34
2022-11-06T23:22:37.601Z,100383.22
2022-11-06T23:25:08.168Z,100380.22
2022-11-06T23:27:38.029Z,100390.88
2022-11-06T23:30:08.368Z,100373.09
2022-11-06T23:32:40.264Z,100390.59
2022-11-06T23:35:14.194Z,100380.72
2022-11-06T23:37:44.577Z,100385.53
2022-11-06T23:40:13.888Z,100387.03
2022-11-06T23:42:43.994Z,100386.09
2022-11-06T23:45:30.966Z,100385.44
2022-11-06T23:48:05.896Z,100375.69
2022-11-06T23:50:37.446Z,100382.56
2022-11-06T23:53:06.460Z,100385.19
2022-11-06T23:55:35.460Z,100391.06
2022-11-06T23:58:04.706Z,100390.69
